Time;durP1;ratioP1;P1;durP2;ratioP2;P2;SDS_P1;SDS_P2;PMS_P1;PMS_P2;Temp;Humidity;BMP_temperature;BMP_pressure;BME280_temperature;BME280_humidity;BME280_pressure;Samples;Min_cycle;Max_cycle;Signal;HPM_P1;HPM_P2
2022/03/29 00:12:08;;;;;;;42.88;16.75;;;10.20;90.60;;;;;;5955985;23;20019;-76
2022/03/29 00:14:34;;;;;;;42.00;17.35;;;10.20;90.90;;;;;;4920376;29;20552;-77
2022/03/29 00:16:59;;;;;;;46.13;17.25;;;10.20;90.60;;;;;;4917066;29;20020;-76
2022/03/29 00:19:25;;;;;;;38.53;17.73;;;10.10;91.00;;;;;;4934114;29;20137;-76
2022/03/29 00:21:51;;;;;;;46.63;17.98;;;10.20;90.90;;;;;;4934213;29;20026;-77
2022/03/29 00:24:16;;;;;;;36.92;15.98;;;10.10;91.20;;;;;;4934111;29;20027;-77
2022/03/29 00:26:42;;;;;;;40.20;16.95;;;10.10;91.40;;;;;;4934144;29;20024;-76
2022/03/29 00:29:08;;;;;;;41.97;17.48;;;10.10;90.90;;;;;;4933624;29;20035;-76
2022/03/29 00:31:34;;;;;;;45.90;17.13;;;10.00;91.40;;;;;;4916908;29;20034;-76
2022/03/29 00:33:59;;;;;;;53.40;18.45;;;10.00;91.50;;;;;;4934132;29;20027;-77
2022/03/29 00:36:27;;;;;;;45.17;18.48;;;10.00;91.50;;;;;;4933798;29;20421;-77
2022/03/29 00:38:54;;;;;;;41.80;17.60;;;10.00;91.60;;;;;;4933728;29;20031;-76
2022/03/29 00:41:20;;;;;;;39.42;17.77;;;10.00;91.70;;;;;;4933741;29;20535;-76
2022/03/29 00:43:46;;;;;;;43.20;17.83;;;10.00;92.00;;;;;;4932838;29;20491;-76
2022/03/29 00:46:11;;;;;;;44.42;17.02;;;10.00;91.90;;;;;;4933527;29;20083;-76
2022/03/29 00:48:38;;;;;;;42.80;18.00;;;10.00;91.70;;;;;;4933591;29;20035;-76
2022/03/29 00:51:05;;;;;;;38.55;17.13;;;9.90;92.20;;;;;;4932908;29;20071;-76
2022/03/29 00:53:31;;;;;;;36.80;17.25;;;10.00;92.20;;;;;;4916351;29;20441;-76
2022/03/29 00:55:59;;;;;;;43.95;16.08;;;10.10;91.90;;;;;;4933898;29;20027;-76
2022/03/29 00:58:26;;;;;;;42.10;17.48;;;10.00;92.10;;;;;;4933508;29;20028;-76
2022/03/29 01:00:55;;;;;;;42.50;17.70;;;9.90;92.30;;;;;;4933476;29;20513;-76
2022/03/29 01:03:20;;;;;;;47.97;19.23;;;9.80;92.80;;;;;;4933597;29;20080;-76
2022/03/29 01:05:46;;;;;;;39.35;17.33;;;9.80;92.90;;;;;;4933892;29;20028;-76
2022/03/29 01:08:12;;;;;;;42.15;17.30;;;9.80;93.00;;;;;;4916233;29;20366;-76
2022/03/29 01:10:38;;;;;;;43.35;16.65;;;9.80;93.70;;;;;;4933513;29;20039;-76
2022/03/29 02:12:37;;;;;;;38.38;16.27;;;9.80;92.60;;;;;;5801450;23;20056;-76
2022/03/29 02:15:03;;;;;;;39.80;15.32;;;9.70;92.70;;;;;;4936468;29;20047;-76
2022/03/29 02:17:29;;;;;;;53.20;17.90;;;9.70;93.40;;;;;;4935985;29;20052;-76
2022/03/29 02:19:54;;;;;;;44.42;17.17;;;9.70;92.90;;;;;;4936038;29;20035;-76
2022/03/29 02:22:20;;;;;;;39.50;16.00;;;9.70;92.90;;;;;;4936423;29;20031;-75
2022/03/29 02:24:46;;;;;;;37.28;16.05;;;9.80;92.60;;;;;;4936213;29;20376;-76
2022/03/29 02:27:12;;;;;;;38.33;16.13;;;9.70;92.50;;;;;;4936125;29;20035;-76
2022/03/29 02:29:37;;;;;;;40.65;15.77;;;9.70;92.50;;;;;;4935714;29;20055;-76
2022/03/29 02:32:03;;;;;;;39.35;17.20;;;9.80;92.80;;;;;;4935845;29;20106;-76
2022/03/29 02:34:29;;;;;;;38.95;15.75;;;9.80;92.20;;;;;;4935833;29;20054;-76
2022/03/29 02:36:55;;;;;;;35.08;14.50;;;9.70;92.20;;;;;;4935578;29;20020;-76
2022/03/29 02:39:21;;;;;;;41.55;16.95;;;9.70;92.40;;;;;;4935684;29;20031;-76
2022/03/29 02:41:46;;;;;;;48.10;17.25;;;9.80;92.30;;;;;;4918552;29;20035;-76
2022/03/29 02:44:12;;;;;;;43.75;16.23;;;9.80;91.60;;;;;;4935424;29;20094;-76
2022/03/29 02:46:38;;;;;;;44.63;16.13;;;9.90;91.40;;;;;;4935564;29;20031;-76
2022/03/29 02:49:03;;;;;;;44.28;17.52;;;9.90;91.80;;;;;;4935538;29;20204;-76
2022/03/29 02:51:29;;;;;;;44.92;17.40;;;9.80;91.90;;;;;;4935593;29;20035;-76
2022/03/29 02:53:55;;;;;;;44.55;16.67;;;9.80;91.70;;;;;;4935670;29;20456;-76
2022/03/29 02:56:21;;;;;;;50.00;18.27;;;9.80;91.80;;;;;;4935220;29;20031;-76
2022/03/29 02:58:46;;;;;;;47.97;20.17;;;9.80;91.60;;;;;;4934906;29;20024;-76
2022/03/29 03:01:12;;;;;;;50.88;20.08;;;9.80;91.90;;;;;;4935053;29;20046;-76
2022/03/29 03:03:38;;;;;;;50.42;17.95;;;9.80;91.80;;;;;;4935127;29;20048;-76
2022/03/29 03:06:03;;;;;;;46.15;18.50;;;9.80;91.60;;;;;;4935621;29;20067;-76
2022/03/29 03:08:30;;;;;;;52.83;19.60;;;9.80;91.40;;;;;;4935168;29;20035;-76
2022/03/29 03:10:56;;;;;;;48.80;19.88;;;9.80;91.40;;;;;;4934958;29;20035;-76
2022/03/29 04:12:55;;;;;;;76.25;25.17;;;8.80;95.00;;;;;;5715773;23;20043;-76
2022/03/29 04:15:21;;;;;;;86.00;27.40;;;8.80;95.10;;;;;;4934155;29;20428;-75
2022/03/29 04:17:47;;;;;;;78.75;26.80;;;8.70;95.00;;;;;;4928059;29;20585;-76
2022/03/29 04:20:13;;;;;;;86.03;29.48;;;8.70;95.20;;;;;;4926205;29;20098;-75
2022/03/29 04:22:38;;;;;;;81.65;27.73;;;8.70;95.40;;;;;;4925876;29;20028;-75
2022/03/29 04:25:05;;;;;;;87.57;28.60;;;8.60;95.40;;;;;;4922492;29;20024;-76
2022/03/29 04:27:30;;;;;;;92.80;29.80;;;8.60;95.50;;;;;;4925070;29;20111;-75
2022/03/29 04:29:56;;;;;;;91.80;29.70;;;8.60;95.40;;;;;;4925280;29;20731;-76
2022/03/29 04:32:22;;;;;;;90.45;29.85;;;8.60;95.30;;;;;;4922306;29;20028;-75
2022/03/29 04:34:48;;;;;;;90.45;29.70;;;8.60;95.60;;;;;;4926015;29;20087;-75
2022/03/29 04:37:14;;;;;;;99.97;30.42;;;8.70;95.30;;;;;;4925233;29;20024;-76
2022/03/29 04:39:40;;;;;;;99.68;30.45;;;8.70;95.40;;;;;;4922468;29;20078;-75
2022/03/29 04:42:07;;;;;;;92.05;30.00;;;8.70;95.30;;;;;;4926357;29;20079;-75
2022/03/29 04:44:34;;;;;;;95.55;30.17;;;8.70;95.20;;;;;;4926181;29;20032;-76
2022/03/29 04:47:00;;;;;;;83.35;28.05;;;8.70;95.50;;;;;;4926503;29;20501;-76
2022/03/29 04:49:26;;;;;;;84.55;26.65;;;8.60;95.50;;;;;;4926633;29;20036;-76
2022/03/29 04:51:51;;;;;;;91.97;29.73;;;8.50;95.70;;;;;;4924406;29;20535;-76
2022/03/29 04:54:17;;;;;;;91.03;28.17;;;8.50;95.70;;;;;;4921687;29;20048;-78
2022/03/29 04:56:43;;;;;;;87.65;28.30;;;8.50;95.80;;;;;;4926391;29;20026;-77
2022/03/29 04:59:09;;;;;;;82.13;27.05;;;8.50;95.60;;;;;;4923814;29;20381;-77
2022/03/29 05:01:36;;;;;;;88.00;27.80;;;8.50;95.60;;;;;;4904918;29;20024;-75
2022/03/29 05:04:03;;;;;;;84.40;29.08;;;8.50;96.00;;;;;;4921982;29;20012;-77
2022/03/29 05:06:29;;;;;;;90.10;28.77;;;8.60;95.70;;;;;;4924995;29;20067;-77
2022/03/29 05:08:54;;;;;;;85.88;28.15;;;8.50;95.80;;;;;;4925961;29;20035;-76
2022/03/29 05:11:20;;;;;;;89.78;29.50;;;8.40;95.90;;;;;;4921935;29;20082;-77
2022/03/29 05:13:46;;;;;;;87.93;29.00;;;8.30;96.10;;;;;;4943017;23;20039;-75
2022/03/29 05:16:11;;;;;;;93.20;29.17;;;8.30;95.90;;;;;;4933169;29;20038;-75
2022/03/29 05:18:37;;;;;;;91.47;28.85;;;8.30;96.10;;;;;;4933357;29;20032;-75
2022/03/29 05:21:03;;;;;;;83.13;28.67;;;8.30;95.90;;;;;;4933294;29;20020;-75
2022/03/29 05:23:29;;;;;;;98.38;30.77;;;8.30;96.10;;;;;;4933147;29;20028;-75
2022/03/29 05:25:54;;;;;;;97.57;30.15;;;8.20;96.10;;;;;;4933230;29;20102;-75
2022/03/29 05:28:20;;;;;;;88.72;28.98;;;8.10;96.30;;;;;;4932835;29;20030;-75
2022/03/29 05:30:46;;;;;;;95.70;30.23;;;8.10;96.30;;;;;;4932936;29;20034;-76
2022/03/29 05:33:15;;;;;;;90.68;29.35;;;8.10;96.20;;;;;;4932925;29;20488;-75
2022/03/29 05:35:43;;;;;;;101.07;30.88;;;8.00;96.10;;;;;;4931995;29;20083;-75
2022/03/29 05:38:08;;;;;;;103.55;31.45;;;7.90;96.20;;;;;;4934814;29;20369;-75
2022/03/29 05:40:34;;;;;;;91.70;31.05;;;7.90;95.90;;;;;;4936993;29;20024;-75
2022/03/29 05:43:00;;;;;;;85.28;28.10;;;7.80;95.50;;;;;;4936143;29;20111;-77
2022/03/29 05:45:26;;;;;;;101.00;30.65;;;7.80;96.20;;;;;;4936181;29;20059;-75
2022/03/29 05:50:36;;;;;;;88.57;29.38;;;7.80;96.10;;;;;;4932020;29;20038;-75
2022/03/29 05:53:02;;;;;;;98.53;31.20;;;7.80;95.70;;;;;;4936289;29;20015;-75
2022/03/29 05:55:28;;;;;;;99.32;31.33;;;7.80;96.00;;;;;;4936273;29;20036;-75
2022/03/29 05:57:54;;;;;;;97.15;30.20;;;7.90;96.20;;;;;;4935694;29;20147;-75
2022/03/29 06:00:25;;;;;;;100.32;31.63;;;7.80;96.50;;;;;;4935992;29;20094;-75
2022/03/29 06:02:53;;;;;;;95.97;31.58;;;7.90;96.30;;;;;;4919326;29;20564;-77
2022/03/29 06:05:19;;;;;;;91.10;31.08;;;7.90;96.30;;;;;;4936118;29;20039;-75
2022/03/29 06:07:45;;;;;;;86.55;30.40;;;7.90;96.40;;;;;;4919352;29;20600;-75
2022/03/29 06:10:11;;;;;;;104.28;32.15;;;7.90;96.30;;;;;;4936690;29;20032;-75
2022/03/29 07:14:44;;;;;;;74.32;27.08;;;9.00;93.80;;;;;;4922681;29;20509;-79
2022/03/29 07:17:13;;;;;;;70.28;27.88;;;9.20;93.40;;;;;;4906804;29;20048;-78
2022/03/29 07:19:39;;;;;;;63.58;26.58;;;9.30;93.60;;;;;;4897368;29;20016;-78
2022/03/29 07:22:05;;;;;;;74.93;27.55;;;9.50;92.60;;;;;;4897531;29;20028;-77
2022/03/29 07:24:31;;;;;;;62.63;26.10;;;9.60;92.10;;;;;;4897426;29;20029;-77
2022/03/29 07:26:57;;;;;;;68.00;26.77;;;9.70;92.00;;;;;;4898823;29;20088;-78
2022/03/29 07:29:25;;;;;;;66.85;25.60;;;9.90;91.30;;;;;;4905693;29;20088;-78
2022/03/29 07:31:51;;;;;;;65.13;25.63;;;9.90;90.50;;;;;;4900547;29;20025;-78
2022/03/29 07:34:17;;;;;;;59.60;25.48;;;9.90;90.80;;;;;;4897833;29;20044;-78
2022/03/29 07:36:43;;;;;;;62.58;25.15;;;10.00;90.30;;;;;;4897960;29;20024;-78
2022/03/29 07:39:09;;;;;;;66.47;26.33;;;10.10;90.60;;;;;;4902355;29;20434;-78
2022/03/29 07:41:35;;;;;;;66.43;26.15;;;10.20;90.40;;;;;;4897569;29;20043;-78
2022/03/29 07:44:02;;;;;;;66.13;26.88;;;10.30;90.40;;;;;;4909531;29;20028;-78
2022/03/29 07:46:28;;;;;;;60.78;27.20;;;10.40;90.10;;;;;;4897540;29;20028;-78
2022/03/29 07:48:54;;;;;;;56.92;24.02;;;10.40;89.90;;;;;;4897963;29;20037;-78
2022/03/29 07:51:20;;;;;;;61.92;26.48;;;10.60;88.90;;;;;;4897733;29;20035;-78
2022/03/29 07:53:47;;;;;;;60.83;25.05;;;10.70;89.00;;;;;;4881436;29;20461;-78
2022/03/29 07:56:13;;;;;;;60.78;24.90;;;10.80;88.10;;;;;;4897707;29;20076;-78
2022/03/29 07:58:39;;;;;;;49.40;23.65;;;10.90;87.10;;;;;;4902747;29;20024;-78
2022/03/29 08:01:05;;;;;;;56.25;25.30;;;11.00;86.50;;;;;;4897856;29;20063;-78
2022/03/29 08:03:34;;;;;;;58.03;24.08;;;11.10;85.80;;;;;;4897636;29;20028;-78
2022/03/29 08:06:01;;;;;;;52.58;22.95;;;11.20;85.50;;;;;;4897491;29;20490;-78
2022/03/29 08:08:28;;;;;;;53.53;23.58;;;11.30;85.10;;;;;;4897684;29;20023;-78
2022/03/29 08:10:54;;;;;;;57.40;25.35;;;11.40;85.00;;;;;;4897722;29;20029;-78
2022/03/29 09:12:53;;;;;;;47.15;21.83;;;12.40;80.80;;;;;;5844516;23;20103;-79
2022/03/29 09:15:18;;;;;;;45.92;20.50;;;12.50;80.60;;;;;;4932886;29;20032;-79
2022/03/29 09:17:47;;;;;;;45.22;19.45;;;12.80;80.40;;;;;;4933108;29;20032;-79
2022/03/29 09:20:21;;;;;;;42.75;20.48;;;13.00;79.30;;;;;;4932991;29;20032;-78
2022/03/29 09:22:49;;;;;;;43.20;19.40;;;13.30;79.30;;;;;;4932631;29;20055;-77
2022/03/29 09:25:24;;;;;;;46.30;20.33;;;13.60;77.40;;;;;;4937423;29;20043;-78
2022/03/29 09:27:54;;;;;;;42.13;19.92;;;13.80;76.60;;;;;;4928852;29;20070;-79
2022/03/29 09:30:21;;;;;;;44.42;20.02;;;13.70;73.40;;;;;;4932810;29;20058;-79
2022/03/29 09:33:01;;;;;;;43.67;20.70;;;13.90;74.50;;;;;;4932038;29;20024;-79
2022/03/29 09:35:27;;;;;;;47.15;20.95;;;14.20;74.20;;;;;;4932654;29;20035;-79
2022/03/29 09:37:54;;;;;;;50.08;21.25;;;14.60;72.60;;;;;;4932969;29;20024;-79
2022/03/29 09:40:20;;;;;;;43.60;20.17;;;14.60;72.60;;;;;;4932123;29;20024;-77
2022/03/29 09:43:05;;;;;;;42.03;20.30;;;14.80;71.60;;;;;;4931421;29;20082;-80
2022/03/29 09:45:43;;;;;;;41.42;19.70;;;15.40;68.80;;;;;;4933440;29;20039;-77
2022/03/29 09:48:41;;;;;;;37.17;18.40;;;15.60;67.40;;;;;;4932375;29;20036;-77
2022/03/29 09:51:07;;;;;;;46.85;18.42;;;16.00;67.20;;;;;;4890709;29;20051;-78
2022/03/29 09:53:33;;;;;;;43.35;21.05;;;16.30;68.70;;;;;;4933267;29;20107;-77
2022/03/29 09:55:59;;;;;;;43.72;21.00;;;16.20;65.30;;;;;;4926859;29;20020;-79
2022/03/29 09:58:25;;;;;;;43.92;21.08;;;16.50;64.20;;;;;;4915989;29;20027;-79
2022/03/29 10:00:51;;;;;;;42.85;21.30;;;16.30;65.60;;;;;;4933252;29;20026;-79
2022/03/29 10:03:18;;;;;;;42.65;19.73;;;16.40;64.50;;;;;;4933607;29;20055;-79
2022/03/29 10:05:49;;;;;;;39.70;18.50;;;17.10;64.00;;;;;;4933145;29;20027;-79
2022/03/29 10:11:03;;;;;;;42.25;20.95;;;17.80;61.10;;;;;;4933244;29;20039;-79
2022/03/29 10:13:30;;;;;;;40.40;21.23;;;18.30;59.40;;;;;;4944343;23;20095;-77
2022/03/29 10:16:00;;;;;;;40.90;21.17;;;18.20;57.00;;;;;;4913981;29;20020;-76
2022/03/29 10:18:27;;;;;;;45.03;22.75;;;18.10;58.10;;;;;;4896898;29;20099;-77
2022/03/29 10:20:54;;;;;;;43.72;22.52;;;17.50;61.20;;;;;;4914231;29;20152;-76
2022/03/29 10:23:24;;;;;;;41.10;20.17;;;18.40;59.80;;;;;;4914780;29;20020;-76
2022/03/29 10:25:55;;;;;;;41.33;20.42;;;18.20;58.50;;;;;;4900554;29;20032;-77
2022/03/29 10:28:27;;;;;;;39.45;20.17;;;18.90;58.50;;;;;;4900675;29;20137;-77
2022/03/29 10:30:53;;;;;;;36.20;19.50;;;19.50;57.60;;;;;;4917500;29;20556;-76
2022/03/29 10:33:27;;;;;;;42.67;21.17;;;19.70;56.80;;;;;;4918031;29;20036;-76
2022/03/29 10:35:58;;;;;;;41.67;22.15;;;19.80;55.20;;;;;;4917772;29;20020;-77
2022/03/29 10:38:43;;;;;;;;;;;19.80;53.60;;;;;;4918054;29;20103;-76
2022/03/29 10:41:27;;;;;;;48.13;22.75;;;19.70;52.90;;;;;;4917698;29;19911;-77
2022/03/29 10:44:01;;;;;;;43.70;22.13;;;20.00;53.00;;;;;;4917219;29;20028;-76
2022/03/29 10:46:46;;;;;;;43.03;21.33;;;19.90;52.40;;;;;;4917493;29;20067;-77
2022/03/29 10:49:32;;;;;;;43.20;21.50;;;20.40;52.10;;;;;;4917589;29;20039;-76
2022/03/29 10:52:06;;;;;;;46.58;23.75;;;20.50;50.40;;;;;;4917288;29;20410;-76
2022/03/29 10:54:36;;;;;;;44.92;24.10;;;19.70;51.20;;;;;;4917484;29;20028;-76
2022/03/29 10:57:31;;;;;;;41.42;22.27;;;19.10;53.10;;;;;;4917471;29;20027;-77
2022/03/29 11:00:11;;;;;;;41.20;21.38;;;19.40;55.20;;;;;;4916790;29;20021;-76
2022/03/29 11:02:57;;;;;;;45.92;23.90;;;19.80;54.00;;;;;;4917096;29;20111;-76
2022/03/29 11:05:23;;;;;;;41.92;22.20;;;20.10;51.80;;;;;;4899991;29;20024;-77
2022/03/29 11:07:52;;;;;;;45.65;23.48;;;20.60;51.60;;;;;;4917083;29;20032;-76
2022/03/29 11:10:19;;;;;;;43.65;22.88;;;20.40;51.40;;;;;;4899884;29;20056;-76
2022/03/29 11:12:53;;;;;;;46.42;23.35;;;20.80;51.10;;;;;;4930299;23;20087;-79
2022/03/29 11:15:27;;;;;;;43.40;22.77;;;20.40;53.70;;;;;;4922891;29;20044;-80
2022/03/29 11:17:54;;;;;;;44.10;23.73;;;20.40;51.70;;;;;;4912352;29;20110;-80
2022/03/29 11:20:38;;;;;;;47.15;24.65;;;20.80;51.40;;;;;;4921326;29;20020;-80
2022/03/29 11:23:05;;;;;;;50.45;24.70;;;19.90;50.50;;;;;;4920847;29;20031;-80
2022/03/29 11:25:40;;;;;;;52.33;27.67;;;19.80;52.40;;;;;;4921221;29;20027;-79
2022/03/29 11:28:16;;;;;;;48.45;25.63;;;20.20;50.70;;;;;;4920634;29;20067;-80
2022/03/29 11:30:43;;;;;;;47.83;25.90;;;20.50;50.50;;;;;;4921598;29;20056;-79
2022/03/29 11:33:11;;;;;;;52.25;24.98;;;20.10;52.10;;;;;;4923281;29;20097;-79
2022/03/29 11:35:38;;;;;;;56.83;28.00;;;20.30;52.90;;;;;;4922897;29;20029;-80
2022/03/29 11:38:15;;;;;;;55.85;27.10;;;19.70;51.00;;;;;;4923133;29;20086;-79
2022/03/29 11:40:41;;;;;;;52.50;27.15;;;20.00;51.70;;;;;;4923465;29;20052;-80
2022/03/29 11:43:14;;;;;;;54.08;27.45;;;20.60;50.20;;;;;;4922771;29;20086;-80
2022/03/29 11:45:42;;;;;;;50.63;25.85;;;21.50;47.70;;;;;;4923316;29;20067;-80
2022/03/29 11:48:14;;;;;;;51.80;26.30;;;21.30;49.00;;;;;;4922925;29;20031;-80
2022/03/29 11:50:43;;;;;;;59.53;28.98;;;22.00;46.80;;;;;;4922889;29;20399;-80
2022/03/29 11:53:33;;;;;;;56.88;27.10;;;22.10;46.50;;;;;;4911064;29;20151;-80
2022/03/29 11:56:11;;;;;;;56.03;27.73;;;21.40;46.10;;;;;;4927852;29;20028;-80
2022/03/29 11:58:43;;;;;;;51.30;26.80;;;22.40;46.10;;;;;;4910317;29;20020;-79
2022/03/29 12:01:15;;;;;;;57.45;28.80;;;22.10;46.10;;;;;;4923898;29;20032;-80
2022/03/29 12:03:51;;;;;;;51.58;27.00;;;21.50;47.10;;;;;;4922705;29;20031;-80
2022/03/29 12:06:19;;;;;;;56.42;27.48;;;21.40;49.70;;;;;;4922816;29;20110;-80
2022/03/29 12:09:07;;;;;;;58.80;27.25;;;21.90;47.20;;;;;;4921548;29;20023;-79
2022/03/29 12:11:37;;;;;;;52.60;27.80;;;22.50;46.70;;;;;;4922065;29;20024;-80
2022/03/29 12:14:13;;;;;;;58.58;28.55;;;22.20;48.10;;;;;;4932166;23;20054;-76
2022/03/29 12:16:43;;;;;;;53.38;27.85;;;22.60;45.90;;;;;;4916275;29;20036;-76
2022/03/29 12:19:13;;;;;;;55.35;28.08;;;22.50;45.70;;;;;;4932895;29;20028;-77
2022/03/29 12:21:42;;;;;;;57.78;29.58;;;22.40;45.70;;;;;;4933711;29;20020;-79
2022/03/29 12:24:12;;;;;;;59.78;31.38;;;21.90;46.60;;;;;;4915603;29;20032;-79
2022/03/29 12:26:40;;;;;;;54.35;28.40;;;21.70;46.30;;;;;;4915706;29;20020;-79
2022/03/29 12:29:10;;;;;;;59.50;29.05;;;21.40;47.30;;;;;;4914886;29;20115;-77
2022/03/29 12:31:38;;;;;;;54.00;28.73;;;21.00;47.50;;;;;;4915506;29;20551;-76
2022/03/29 12:34:05;;;;;;;55.80;28.50;;;20.50;48.90;;;;;;4926309;29;20059;-77
2022/03/29 12:36:31;;;;;;;52.55;28.38;;;20.70;48.90;;;;;;4932451;29;20028;-77
2022/03/29 12:39:03;;;;;;;52.90;28.60;;;21.00;48.90;;;;;;4932635;29;20075;-77
2022/03/29 12:41:32;;;;;;;56.42;29.70;;;21.20;48.90;;;;;;4933513;29;20071;-77
2022/03/29 12:43:59;;;;;;;58.00;29.38;;;20.50;50.50;;;;;;4928142;29;20078;-78
2022/03/29 12:46:25;;;;;;;57.20;28.50;;;20.60;50.60;;;;;;4932072;29;20051;-77
2022/03/29 12:48:51;;;;;;;54.83;28.25;;;20.40;50.70;;;;;;4933111;29;20035;-77
2022/03/29 12:51:24;;;;;;;54.80;28.13;;;19.90;51.80;;;;;;4932966;29;20035;-77
2022/03/29 12:53:58;;;;;;;59.80;31.40;;;19.90;52.60;;;;;;4932461;29;20030;-77
2022/03/29 12:56:31;;;;;;;53.65;26.27;;;19.50;52.00;;;;;;4915027;29;20495;-77
2022/03/29 12:58:58;;;;;;;55.35;28.65;;;19.80;52.90;;;;;;4932060;29;20031;-78
2022/03/29 13:01:35;;;;;;;58.10;28.88;;;19.80;52.60;;;;;;4933079;29;20110;-76
2022/03/29 13:04:09;;;;;;;59.00;29.83;;;19.60;53.10;;;;;;4933061;29;20051;-77
2022/03/29 13:06:42;;;;;;;57.63;28.65;;;19.40;53.20;;;;;;4926054;29;20027;-77
2022/03/29 13:09:12;;;;;;;52.17;25.42;;;19.40;54.20;;;;;;4931736;29;20055;-79
2022/03/29 13:11:37;;;;;;;57.65;27.50;;;19.40;53.50;;;;;;4932123;29;20070;-79
2022/03/29 13:14:05;;;;;;;57.03;28.23;;;18.80;54.00;;;;;;4933190;23;20051;-76
2022/03/29 13:16:32;;;;;;;58.90;27.85;;;19.00;53.30;;;;;;4932154;29;20032;-77
2022/03/29 13:18:58;;;;;;;59.47;28.42;;;18.60;54.60;;;;;;4932331;29;20054;-76
2022/03/29 13:21:32;;;;;;;55.67;28.20;;;18.40;54.20;;;;;;4933372;29;20476;-76
2022/03/29 13:24:04;;;;;;;51.75;25.40;;;18.80;55.30;;;;;;4932106;29;20027;-77
2022/03/29 13:26:31;;;;;;;54.22;28.30;;;19.20;55.30;;;;;;4932270;29;20083;-76
2022/03/29 13:28:58;;;;;;;62.25;30.38;;;19.30;54.30;;;;;;4932009;29;20036;-77
2022/03/29 13:31:30;;;;;;;58.70;29.15;;;19.40;53.70;;;;;;4933002;29;20398;-76
2022/03/29 13:33:57;;;;;;;50.63;26.70;;;19.20;54.10;;;;;;4932286;29;20499;-76
2022/03/29 13:36:25;;;;;;;59.72;28.30;;;18.00;54.90;;;;;;4931910;29;20052;-76
2022/03/29 13:38:53;;;;;;;66.25;28.95;;;18.20;56.50;;;;;;4932715;29;20035;-77
2022/03/29 13:41:20;;;;;;;57.22;29.52;;;18.80;56.30;;;;;;4925892;29;20423;-77
2022/03/29 13:43:46;;;;;;;54.30;26.13;;;19.10;55.40;;;;;;4931702;29;20103;-76
2022/03/29 13:46:13;;;;;;;64.18;28.88;;;18.70;54.70;;;;;;4932653;29;20031;-76
2022/03/29 13:48:40;;;;;;;56.90;27.20;;;18.90;55.10;;;;;;4933049;29;20075;-76
2022/03/29 13:51:08;;;;;;;63.40;27.20;;;19.10;54.40;;;;;;4932891;29;20126;-76
2022/03/29 13:53:35;;;;;;;65.85;29.83;;;19.00;55.20;;;;;;4932860;29;20051;-77
2022/03/29 13:56:00;;;;;;;63.60;28.17;;;18.60;54.90;;;;;;4933066;29;20024;-76
2022/03/29 13:58:28;;;;;;;59.83;29.33;;;18.80;55.20;;;;;;4934034;29;20028;-76
2022/03/29 14:00:54;;;;;;;56.47;28.15;;;19.10;55.70;;;;;;4936358;29;20032;-76
2022/03/29 14:03:21;;;;;;;51.25;27.05;;;18.70;54.90;;;;;;4936607;29;20482;-76
2022/03/29 14:05:47;;;;;;;59.17;27.30;;;18.40;55.00;;;;;;4936229;29;20028;-76
2022/03/29 14:08:13;;;;;;;57.78;27.30;;;18.30;55.50;;;;;;4936049;29;20540;-76
2022/03/29 14:10:41;;;;;;;62.13;28.73;;;18.40;55.80;;;;;;4935742;29;20052;-76
2022/03/29 14:13:08;;;;;;;60.72;27.70;;;18.60;56.10;;;;;;4939570;23;20067;-78
2022/03/29 14:15:36;;;;;;;60.17;27.77;;;18.50;54.80;;;;;;4909753;29;20122;-76
2022/03/29 14:18:07;;;;;;;59.03;28.50;;;18.50;55.30;;;;;;4935993;29;20016;-76
2022/03/29 14:20:34;;;;;;;54.55;27.85;;;17.90;57.70;;;;;;4936251;29;20051;-76
2022/03/29 14:23:00;;;;;;;57.03;27.80;;;17.80;56.50;;;;;;4935826;29;20111;-76
2022/03/29 14:25:26;;;;;;;63.45;27.02;;;18.00;56.30;;;;;;4935953;29;20111;-76
2022/03/29 14:27:52;;;;;;;53.17;27.17;;;18.10;56.50;;;;;;4936210;29;20507;-76
2022/03/29 14:30:19;;;;;;;55.40;26.02;;;18.00;55.90;;;;;;4935346;29;20036;-76
2022/03/29 14:32:45;;;;;;;54.85;25.65;;;17.90;57.40;;;;;;4918459;29;20028;-76
2022/03/29 14:35:11;;;;;;;53.55;26.25;;;18.10;56.60;;;;;;4935425;29;20099;-77
2022/03/29 14:37:38;;;;;;;57.08;24.90;;;18.20;55.70;;;;;;4935733;29;20036;-76
2022/03/29 14:40:10;;;;;;;46.63;22.55;;;18.10;56.70;;;;;;4935236;29;20039;-76
2022/03/29 14:42:37;;;;;;;52.22;25.95;;;18.30;57.10;;;;;;4935379;29;20023;-76
2022/03/29 14:45:05;;;;;;;53.45;24.83;;;18.00;55.80;;;;;;4934917;29;20090;-77
2022/03/29 14:47:33;;;;;;;53.00;23.90;;;17.50;56.40;;;;;;4934532;29;20016;-76
2022/03/29 14:49:58;;;;;;;49.97;23.27;;;17.20;57.60;;;;;;4934813;29;20024;-76
2022/03/29 14:52:24;;;;;;;43.13;21.73;;;16.70;58.90;;;;;;4935206;29;20535;-78
2022/03/29 14:54:50;;;;;;;49.20;24.08;;;16.70;58.60;;;;;;4928063;29;20034;-78
2022/03/29 14:57:16;;;;;;;54.28;26.10;;;16.80;60.20;;;;;;4934350;29;20034;-76
2022/03/29 14:59:42;;;;;;;56.53;26.33;;;16.60;60.90;;;;;;4934025;29;20038;-76
2022/03/29 15:02:08;;;;;;;53.38;24.05;;;16.70;61.10;;;;;;4934910;29;20106;-76
2022/03/29 15:04:38;;;;;;;46.33;21.27;;;16.80;61.10;;;;;;4934043;29;20067;-76
2022/03/29 15:07:07;;;;;;;51.58;23.60;;;16.70;61.00;;;;;;4933876;29;20354;-76
2022/03/29 15:09:33;;;;;;;46.63;23.15;;;16.70;60.70;;;;;;4934517;29;20054;-76
2022/03/29 15:11:59;;;;;;;75.00;32.03;;;16.60;61.30;;;;;;4933991;29;20016;-76
2022/03/29 15:14:26;;;;;;;88.72;37.13;;;16.40;65.00;;;;;;4943691;23;20044;-76
2022/03/29 15:16:52;;;;;;;83.50;36.50;;;15.80;67.90;;;;;;4934832;29;20032;-76
2022/03/29 15:19:19;;;;;;;90.72;35.83;;;15.70;68.10;;;;;;4934216;29;20026;-76
2022/03/29 15:21:45;;;;;;;89.57;38.03;;;15.60;69.20;;;;;;4934036;29;20020;-76
2022/03/29 15:24:10;;;;;;;85.50;33.97;;;15.50;69.90;;;;;;4934298;29;20020;-76
2022/03/29 15:26:36;;;;;;;88.50;38.45;;;15.30;69.50;;;;;;4933643;29;20020;-76
2022/03/29 15:29:02;;;;;;;92.82;38.00;;;15.20;70.60;;;;;;4933654;29;20020;-76
2022/03/29 15:31:28;;;;;;;89.00;38.15;;;14.80;71.80;;;;;;4934162;29;20531;-76
2022/03/29 15:33:53;;;;;;;94.45;38.67;;;14.70;73.20;;;;;;4927480;29;20028;-76
2022/03/29 15:36:20;;;;;;;91.43;38.40;;;14.40;74.60;;;;;;4916403;29;20068;-76
2022/03/29 15:38:45;;;;;;;87.90;37.45;;;14.10;77.50;;;;;;4934005;29;20031;-76
2022/03/29 15:41:13;;;;;;;100.15;39.60;;;13.80;79.60;;;;;;4934116;29;20036;-76
2022/03/29 15:43:40;;;;;;;95.90;38.58;;;13.80;81.20;;;;;;4931721;29;20052;-76
2022/03/29 15:46:06;;;;;;;97.65;39.03;;;13.80;82.00;;;;;;4933694;29;20477;-76
2022/03/29 15:48:32;;;;;;;103.72;40.72;;;13.60;83.60;;;;;;4934261;29;20023;-76
2022/03/29 15:50:59;;;;;;;86.07;37.60;;;13.50;82.50;;;;;;4933672;29;20103;-76
2022/03/29 15:53:25;;;;;;;95.65;40.42;;;13.60;84.70;;;;;;4934198;29;20523;-76
2022/03/29 15:55:51;;;;;;;98.72;41.15;;;13.40;84.60;;;;;;4933964;29;20106;-76
2022/03/29 15:58:22;;;;;;;109.05;42.00;;;13.20;85.00;;;;;;4934029;29;20090;-76
2022/03/29 16:00:48;;;;;;;105.65;40.88;;;13.10;87.70;;;;;;4933995;29;20567;-76
2022/03/29 16:03:14;;;;;;;102.40;38.58;;;12.80;88.10;;;;;;4934685;29;20016;-76
2022/03/29 16:05:40;;;;;;;100.47;38.38;;;12.70;89.60;;;;;;4934027;29;20023;-76
2022/03/29 16:08:06;;;;;;;114.28;43.08;;;12.60;90.00;;;;;;4933635;29;20409;-76
2022/03/29 16:10:32;;;;;;;112.50;43.50;;;12.50;89.50;;;;;;4934173;29;20036;-76
2022/03/29 16:15:26;;;;;;;109.82;42.38;;;12.60;92.80;;;;;;4923094;29;20052;-79
2022/03/29 16:17:52;;;;;;;123.70;41.25;;;12.60;90.20;;;;;;4933146;29;20024;-79
2022/03/29 16:20:18;;;;;;;101.88;38.55;;;12.70;92.00;;;;;;4933250;29;20508;-79
2022/03/29 16:22:44;;;;;;;103.88;41.80;;;12.70;90.10;;;;;;4932791;29;20028;-79
2022/03/29 16:25:12;;;;;;;116.85;43.22;;;12.60;91.20;;;;;;4932984;29;20120;-79
2022/03/29 16:27:39;;;;;;;109.35;39.95;;;12.60;92.60;;;;;;4925066;29;20020;-79
2022/03/29 16:30:07;;;;;;;109.53;42.15;;;12.70;90.90;;;;;;4917046;29;20068;-79
2022/03/29 16:32:33;;;;;;;107.78;39.47;;;12.70;91.50;;;;;;4927848;29;20050;-79
2022/03/29 16:34:59;;;;;;;112.00;42.78;;;12.70;91.90;;;;;;4927118;29;20401;-80
2022/03/29 16:37:25;;;;;;;101.40;41.55;;;12.80;91.90;;;;;;4920164;29;20102;-79
2022/03/29 16:39:51;;;;;;;105.65;40.83;;;12.90;91.40;;;;;;4914286;29;20035;-79
2022/03/29 16:42:18;;;;;;;118.07;43.17;;;12.50;90.70;;;;;;4925189;29;20031;-82
2022/03/29 16:44:44;;;;;;;117.72;44.65;;;12.40;90.90;;;;;;4922863;29;20104;-83
2022/03/29 16:47:11;;;;;;;127.30;46.20;;;12.20;91.40;;;;;;4918373;29;20039;-82
2022/03/29 16:49:38;;;;;;;129.40;45.70;;;12.30;93.80;;;;;;4923848;29;20031;-84
2022/03/29 16:52:06;;;;;;;112.75;40.55;;;12.20;92.70;;;;;;4916718;29;20063;-85